createdAt,value
2017-11-06T00:02:21.927Z,17.42
2017-11-06T00:04:49.682Z,16.85
2017-11-06T00:07:17.210Z,16.85
2017-11-06T00:09:44.826Z,16.45
2017-11-06T00:12:12.669Z,14.85
2017-11-06T00:14:40.219Z,15.70
2017-11-06T00:17:07.802Z,17.25
2017-11-06T00:19:35.619Z,16.50
2017-11-06T00:22:03.165Z,17.80
2017-11-06T00:24:30.834Z,16.65
2017-11-06T00:26:58.431Z,18.85
2017-11-06T00:29:26.019Z,23.12
2017-11-06T00:31:53.699Z,21.77
2017-11-06T00:34:21.240Z,21.70
2017-11-06T00:36:48.823Z,23.30
2017-11-06T00:39:16.417Z,20.77
2017-11-06T00:41:44.129Z,17.40
2017-11-06T00:44:11.662Z,20.55
2017-11-06T00:46:39.278Z,17.33
2017-11-06T00:49:06.809Z,16.25
2017-11-06T00:51:34.355Z,18.30
2017-11-06T00:54:01.935Z,19.33
2017-11-06T00:56:29.543Z,21.42
2017-11-06T00:58:57.094Z,19.75
2017-11-06T01:01:24.797Z,19.62
2017-11-06T01:03:52.377Z,20.40
2017-11-06T01:06:20.040Z,20.23
2017-11-06T01:08:47.623Z,20.08
2017-11-06T01:11:15.169Z,20.73
2017-11-06T01:13:42.725Z,24.20
2017-11-06T01:16:10.320Z,21.42
2017-11-06T01:18:37.850Z,22.25
2017-11-06T01:21:05.634Z,23.15
2017-11-06T01:23:33.235Z,24.00
2017-11-06T01:26:00.789Z,22.95
2017-11-06T01:28:28.351Z,23.30
2017-11-06T01:30:56.032Z,22.25
2017-11-06T01:33:23.582Z,24.90
2017-11-06T01:35:51.106Z,25.17
2017-11-06T01:38:18.703Z,24.45
2017-11-06T01:40:46.240Z,23.60
2017-11-06T01:43:13.799Z,23.60
2017-11-06T01:45:41.411Z,24.73
2017-11-06T01:48:09.368Z,24.55
2017-11-06T01:50:36.912Z,25.35
2017-11-06T01:53:04.619Z,25.77
2017-11-06T01:55:32.199Z,28.62
2017-11-06T01:57:59.803Z,26.00
2017-11-06T02:00:27.707Z,25.35
2017-11-06T02:02:55.288Z,24.73
2017-11-06T02:05:22.907Z,27.42
2017-11-06T02:07:50.635Z,26.35
2017-11-06T02:10:18.241Z,27.00
2017-11-06T02:12:45.793Z,26.55
2017-11-06T02:15:13.404Z,25.98
2017-11-06T02:17:40.966Z,25.95
2017-11-06T02:20:08.553Z,25.98
2017-11-06T02:22:36.188Z,24.50
2017-11-06T02:25:03.810Z,22.70
2017-11-06T02:27:31.408Z,24.30
2017-11-06T02:29:59.047Z,24.55
2017-11-06T02:32:26.675Z,27.52
2017-11-06T02:34:54.224Z,24.95
2017-11-06T02:37:21.762Z,26.98
2017-11-06T02:39:49.375Z,24.67
2017-11-06T02:42:16.974Z,25.40
2017-11-06T02:44:44.568Z,25.00
2017-11-06T02:47:12.263Z,26.65
2017-11-06T02:49:39.788Z,26.40
2017-11-06T02:52:07.723Z,27.95
2017-11-06T02:54:35.362Z,27.42
2017-11-06T02:57:02.919Z,28.38
2017-11-06T02:59:30.792Z,28.15
2017-11-06T03:01:58.401Z,26.33
2017-11-06T03:04:25.946Z,24.80
2017-11-06T03:06:53.493Z,26.23
2017-11-06T03:09:21.058Z,26.02
2017-11-06T03:11:48.664Z,25.30
2017-11-06T03:14:16.252Z,26.30
2017-11-06T03:16:43.828Z,26.40
2017-11-06T03:19:11.367Z,26.17
2017-11-06T03:21:38.956Z,26.65
2017-11-06T03:24:06.606Z,26.85
2017-11-06T03:26:34.154Z,25.92
2017-11-06T03:29:01.699Z,27.80
2017-11-06T03:31:29.305Z,26.02
2017-11-06T03:33:56.837Z,29.27
2017-11-06T03:36:24.374Z,30.20
2017-11-06T03:38:51.950Z,28.55
2017-11-06T03:41:19.490Z,30.62
2017-11-06T03:43:47.026Z,26.30
2017-11-06T03:46:14.608Z,27.17
2017-11-06T03:48:42.167Z,28.20
2017-11-06T03:51:09.765Z,26.55
2017-11-06T03:53:37.340Z,27.40
2017-11-06T03:56:04.983Z,28.23
2017-11-06T03:58:32.501Z,27.48
2017-11-06T04:01:00.153Z,28.75
2017-11-06T04:03:27.720Z,24.80
2017-11-06T04:05:55.274Z,27.67
2017-11-06T04:08:22.885Z,28.50
2017-11-06T04:10:50.690Z,29.20
2017-11-06T04:13:18.238Z,28.40
2017-11-06T04:15:45.835Z,28.23
2017-11-06T04:18:13.368Z,30.88
2017-11-06T04:20:40.964Z,25.02
2017-11-06T04:23:10.531Z,23.90
2017-11-06T04:25:38.095Z,23.05
2017-11-06T04:28:05.643Z,21.45
2017-11-06T04:30:33.222Z,21.02
2017-11-06T04:33:00.838Z,20.60
2017-11-06T04:35:28.425Z,22.75
2017-11-06T04:37:56.065Z,23.65
2017-11-06T04:40:23.602Z,25.67
2017-11-06T04:42:51.231Z,24.25
2017-11-06T04:45:18.894Z,20.25
2017-11-06T04:47:46.524Z,19.00
2017-11-06T04:50:14.117Z,21.20
2017-11-06T04:52:41.726Z,22.25
2017-11-06T04:55:09.272Z,23.35
2017-11-06T04:57:36.798Z,17.92
2017-11-06T05:00:07.561Z,20.58
2017-11-06T05:02:35.126Z,17.10
2017-11-06T05:05:03.092Z,16.87
2017-11-06T05:07:30.775Z,16.95
2017-11-06T05:09:58.383Z,14.80
2017-11-06T05:12:25.943Z,16.20
2017-11-06T05:14:53.629Z,15.55
2017-11-06T05:17:21.410Z,15.88
2017-11-06T05:19:49.029Z,16.52
2017-11-06T05:22:16.643Z,16.80
2017-11-06T05:24:44.243Z,15.27
2017-11-06T05:27:11.839Z,13.60
2017-11-06T05:29:39.411Z,14.57
2017-11-06T05:32:07.009Z,14.00
2017-11-06T05:34:34.780Z,13.23
2017-11-06T05:37:02.405Z,14.18
2017-11-06T05:39:30.062Z,14.80
2017-11-06T05:41:57.856Z,15.15
2017-11-06T05:44:25.679Z,17.35
2017-11-06T05:46:53.273Z,18.40
2017-11-06T05:49:20.943Z,16.23
2017-11-06T05:51:48.882Z,18.57
2017-11-06T05:54:16.523Z,19.20
2017-11-06T05:56:44.122Z,20.43
2017-11-06T05:59:11.746Z,20.33
2017-11-06T06:01:39.346Z,18.73
2017-11-06T06:04:06.944Z,16.93
2017-11-06T06:06:34.582Z,25.63
2017-11-06T06:09:02.403Z,23.73
2017-11-06T06:11:30.022Z,22.40
2017-11-06T06:13:57.659Z,21.97
2017-11-06T06:16:25.242Z,22.07
2017-11-06T06:18:52.882Z,22.00
2017-11-06T06:21:20.472Z,25.10
2017-11-06T06:23:48.091Z,26.77
2017-11-06T06:26:15.923Z,24.70
2017-11-06T06:28:43.471Z,25.90
2017-11-06T06:31:11.067Z,24.47
2017-11-06T06:33:38.800Z,28.63
2017-11-06T06:36:06.446Z,32.70
2017-11-06T06:38:34.075Z,32.63
2017-11-06T06:41:02.016Z,35.00
2017-11-06T06:43:29.695Z,35.10
2017-11-06T06:45:57.356Z,31.73
2017-11-06T06:48:25.100Z,28.30
2017-11-06T06:50:52.826Z,28.17
2017-11-06T06:53:20.423Z,31.03
2017-11-06T06:55:48.293Z,26.70
2017-11-06T06:58:15.931Z,28.27
2017-11-06T07:00:43.622Z,26.67
2017-11-06T07:03:11.747Z,27.13
2017-11-06T07:05:39.444Z,28.47
2017-11-06T07:08:07.812Z,27.10
2017-11-06T07:10:35.403Z,29.67
2017-11-06T07:13:03.008Z,28.87
2017-11-06T07:15:30.633Z,26.80
2017-11-06T07:17:58.273Z,25.63
2017-11-06T07:20:25.870Z,23.93
2017-11-06T07:22:53.530Z,25.70
2017-11-06T07:25:21.158Z,23.60
2017-11-06T07:27:48.743Z,24.43
2017-11-06T07:30:17.035Z,24.87
2017-11-06T07:32:44.675Z,22.90
2017-11-06T07:35:12.459Z,23.40
2017-11-06T07:37:40.157Z,23.23
2017-11-06T07:40:07.986Z,23.80
2017-11-06T07:42:36.248Z,24.60
2017-11-06T07:45:03.965Z,23.70
2017-11-06T07:47:31.712Z,23.93
2017-11-06T07:49:59.323Z,24.57
2017-11-06T07:52:26.947Z,23.80
2017-11-06T07:54:54.517Z,23.07
2017-11-06T07:57:22.151Z,22.47
2017-11-06T07:59:49.868Z,24.83
2017-11-06T08:02:18.454Z,24.87
2017-11-06T08:04:46.216Z,23.33
2017-11-06T08:07:13.858Z,21.83
2017-11-06T08:09:41.465Z,22.00
2017-11-06T08:12:09.885Z,21.10
2017-11-06T08:14:38.376Z,18.90
2017-11-06T08:17:08.025Z,19.63
2017-11-06T08:19:35.634Z,20.43
2017-11-06T08:22:03.263Z,18.87
2017-11-06T08:24:30.896Z,20.07
2017-11-06T08:26:58.715Z,17.00
2017-11-06T08:29:26.296Z,13.77
2017-11-06T08:31:53.999Z,12.67
2017-11-06T08:34:21.715Z,12.80
2017-11-06T08:36:49.373Z,13.63
2017-11-06T08:39:17.907Z,15.37
2017-11-06T08:41:45.668Z,13.63
2017-11-06T08:44:13.345Z,14.30
2017-11-06T08:46:40.943Z,13.53
2017-11-06T08:49:08.753Z,13.57
2017-11-06T08:51:36.524Z,14.23
2017-11-06T08:54:04.263Z,12.80
2017-11-06T08:56:31.828Z,12.77
2017-11-06T08:58:59.450Z,11.93
2017-11-06T09:01:27.924Z,12.93
2017-11-06T09:03:55.766Z,12.93
2017-11-06T09:06:23.528Z,13.70
2017-11-06T09:08:52.098Z,15.13
2017-11-06T09:11:19.723Z,15.90
2017-11-06T09:13:47.540Z,15.37
2017-11-06T09:16:16.092Z,15.27
2017-11-06T09:18:43.783Z,14.60
2017-11-06T09:21:12.358Z,13.77
2017-11-06T09:23:39.974Z,14.40
2017-11-06T09:26:07.627Z,13.20
2017-11-06T09:28:35.394Z,14.70
2017-11-06T09:31:03.042Z,13.67
2017-11-06T09:33:30.672Z,14.23
2017-11-06T09:35:58.427Z,14.43
2017-11-06T09:38:26.150Z,13.90
2017-11-06T09:40:53.851Z,12.90
2017-11-06T09:43:21.488Z,10.70
2017-11-06T09:45:49.111Z,14.63
2017-11-06T09:48:16.878Z,13.70
2017-11-06T09:50:44.500Z,13.53
2017-11-06T09:53:12.083Z,12.73
2017-11-06T09:55:39.667Z,14.13
2017-11-06T09:58:07.233Z,13.20
2017-11-06T10:00:34.835Z,12.50
2017-11-06T10:03:03.136Z,11.73
2017-11-06T10:05:30.803Z,12.47
2017-11-06T10:07:58.399Z,12.90
2017-11-06T10:10:26.092Z,13.63
2017-11-06T10:12:53.892Z,12.17
2017-11-06T10:15:21.511Z,13.27
2017-11-06T10:17:49.250Z,12.23
2017-11-06T10:20:17.036Z,11.13
2017-11-06T10:22:45.288Z,11.20
2017-11-06T10:25:13.118Z,10.70
2017-11-06T10:27:42.514Z,10.00
2017-11-06T10:30:10.471Z,11.17
2017-11-06T10:32:38.251Z,11.30
2017-11-06T10:35:05.903Z,10.03
2017-11-06T10:37:33.546Z,9.20
2017-11-06T10:40:01.216Z,9.10
2017-11-06T10:42:28.872Z,10.73
2017-11-06T10:44:56.550Z,9.70
2017-11-06T10:47:24.360Z,7.90
2017-11-06T10:49:51.978Z,8.10
2017-11-06T10:52:19.581Z,8.30
2017-11-06T10:54:47.227Z,7.80
2017-11-06T10:57:16.229Z,7.93
2017-11-06T10:59:43.974Z,8.20
2017-11-06T11:02:11.573Z,8.30
2017-11-06T11:04:39.187Z,9.40
2017-11-06T11:07:06.821Z,7.30
2017-11-06T11:09:34.430Z,9.20
2017-11-06T11:12:02.098Z,8.80
2017-11-06T11:14:29.783Z,8.73
2017-11-06T11:16:57.425Z,7.50
2017-11-06T11:19:24.991Z,8.10
2017-11-06T11:21:52.605Z,8.07
2017-11-06T11:24:20.765Z,8.00
2017-11-06T11:26:48.394Z,7.97
2017-11-06T11:29:16.341Z,8.77
2017-11-06T11:31:44.288Z,7.70
2017-11-06T11:34:11.882Z,7.30
2017-11-06T11:36:39.530Z,6.47
2017-11-06T11:39:07.164Z,7.40
2017-11-06T11:41:34.891Z,7.20
2017-11-06T11:44:02.796Z,8.60
2017-11-06T11:46:30.423Z,8.20
2017-11-06T11:48:58.023Z,10.60
2017-11-06T11:51:25.653Z,7.83
2017-11-06T11:53:53.289Z,8.10
2017-11-06T11:56:20.889Z,7.70
2017-11-06T11:58:48.459Z,7.63
2017-11-06T12:01:16.115Z,8.10
2017-11-06T12:03:43.722Z,8.00
2017-11-06T12:06:16.391Z,7.80
2017-11-06T12:08:43.996Z,8.00
2017-11-06T12:11:11.777Z,7.23
2017-11-06T12:13:39.426Z,6.93
2017-11-06T12:16:07.226Z,7.20
2017-11-06T12:18:38.215Z,7.40
2017-11-06T12:21:06.052Z,7.20
2017-11-06T12:23:33.802Z,7.73
2017-11-06T12:26:01.436Z,8.20
2017-11-06T12:28:29.067Z,8.00
2017-11-06T12:30:56.696Z,6.70
2017-11-06T12:33:25.579Z,8.20
2017-11-06T12:35:53.323Z,7.20
2017-11-06T12:38:20.982Z,7.50
2017-11-06T12:40:48.600Z,8.37
2017-11-06T12:43:16.305Z,8.37
2017-11-06T12:45:43.897Z,8.20
2017-11-06T12:48:11.532Z,8.13
2017-11-06T12:50:39.128Z,7.93
2017-11-06T12:53:06.696Z,8.00
2017-11-06T12:55:34.304Z,8.27
2017-11-06T12:58:01.896Z,9.30
2017-11-06T13:00:29.812Z,7.93
2017-11-06T13:02:57.446Z,7.57
2017-11-06T13:05:24.995Z,8.80
2017-11-06T13:07:52.738Z,7.80
2017-11-06T13:10:20.408Z,8.33
2017-11-06T13:12:48.101Z,9.70
2017-11-06T13:15:15.717Z,8.57
2017-11-06T13:17:43.349Z,8.50
2017-11-06T13:20:10.972Z,8.40
2017-11-06T13:22:38.654Z,7.97
2017-11-06T13:25:06.260Z,8.13
2017-11-06T13:27:34.046Z,8.43
2017-11-06T13:30:02.026Z,8.17
2017-11-06T13:32:29.884Z,8.33
2017-11-06T13:34:57.533Z,8.50
2017-11-06T13:37:25.094Z,8.10
2017-11-06T13:39:52.813Z,8.67
2017-11-06T13:42:20.640Z,8.90
2017-11-06T13:44:48.423Z,9.70
2017-11-06T13:47:16.025Z,8.80
2017-11-06T13:49:43.658Z,9.60
2017-11-06T13:52:11.249Z,10.77
2017-11-06T13:54:38.982Z,10.60
2017-11-06T13:57:06.821Z,10.03
2017-11-06T13:59:34.666Z,9.77
2017-11-06T14:02:02.564Z,10.60
2017-11-06T14:04:30.160Z,11.07
2017-11-06T14:06:57.992Z,11.00
2017-11-06T14:09:25.661Z,11.63
2017-11-06T14:11:53.370Z,11.50
2017-11-06T14:14:20.965Z,11.47
2017-11-06T14:16:48.602Z,11.10
2017-11-06T14:19:16.383Z,12.63
2017-11-06T14:21:44.054Z,13.00
2017-11-06T14:24:11.708Z,13.27
2017-11-06T14:26:39.571Z,12.23
2017-11-06T14:29:07.148Z,11.90
2017-11-06T14:31:34.914Z,12.70
2017-11-06T14:34:03.385Z,12.43
2017-11-06T14:36:31.221Z,12.53
2017-11-06T14:38:59.089Z,11.17
2017-11-06T14:41:26.887Z,12.60
2017-11-06T14:43:54.707Z,12.40
2017-11-06T14:46:22.400Z,12.73
2017-11-06T14:48:51.050Z,13.60
2017-11-06T14:51:18.666Z,14.07
2017-11-06T14:53:46.351Z,14.83
2017-11-06T14:56:14.144Z,14.50
2017-11-06T14:58:41.991Z,14.70
2017-11-06T15:01:09.866Z,17.00
2017-11-06T15:03:37.554Z,17.57
2017-11-06T15:06:05.214Z,20.43
2017-11-06T15:08:32.877Z,21.10
2017-11-06T15:11:01.689Z,22.70
2017-11-06T15:13:29.504Z,20.13
2017-11-06T15:15:57.308Z,17.00
2017-11-06T15:18:24.959Z,13.97
2017-11-06T15:20:52.596Z,13.67
2017-11-06T15:23:22.069Z,14.87
2017-11-06T15:25:50.078Z,14.00
2017-11-06T15:28:17.704Z,13.90
2017-11-06T15:30:45.531Z,18.00
2017-11-06T15:33:13.303Z,24.70
2017-11-06T15:35:40.944Z,29.90
2017-11-06T15:38:10.949Z,27.50
2017-11-06T15:40:39.335Z,29.17
2017-11-06T15:43:06.993Z,26.20
2017-11-06T15:45:34.620Z,32.20
2017-11-06T15:48:03.017Z,34.83
2017-11-06T15:50:31.076Z,33.30
2017-11-06T15:52:59.890Z,37.30
2017-11-06T15:55:27.808Z,34.33
2017-11-06T15:57:55.421Z,31.90
2017-11-06T16:00:23.387Z,30.07
2017-11-06T16:02:50.975Z,32.77
2017-11-06T16:05:19.870Z,40.73
2017-11-06T16:07:47.521Z,29.20
2017-11-06T16:10:15.094Z,25.30
2017-11-06T16:12:42.748Z,30.50
2017-11-06T16:15:10.359Z,42.97
2017-11-06T16:17:38.146Z,50.73
2017-11-06T16:20:05.730Z,45.50
2017-11-06T16:22:33.334Z,34.87
2017-11-06T16:25:00.911Z,32.27
2017-11-06T16:27:28.447Z,33.77
2017-11-06T16:29:56.049Z,35.80
2017-11-06T16:32:23.973Z,35.83
2017-11-06T16:34:51.743Z,36.40
2017-11-06T16:37:19.527Z,39.23
2017-11-06T16:39:47.166Z,35.67
2017-11-06T16:42:14.947Z,40.27
2017-11-06T16:44:43.311Z,37.40
2017-11-06T16:47:12.022Z,35.97
2017-11-06T16:49:39.594Z,32.27
2017-11-06T16:52:07.430Z,29.33
2017-11-06T16:54:35.181Z,29.20
2017-11-06T16:57:02.970Z,27.57
2017-11-06T16:59:30.627Z,30.10
2017-11-06T17:01:58.569Z,28.97
2017-11-06T17:04:26.503Z,28.45
2017-11-06T17:06:56.124Z,29.07
2017-11-06T17:09:24.026Z,30.40
2017-11-06T17:11:52.803Z,30.53
2017-11-06T17:14:20.421Z,31.15
2017-11-06T17:16:48.090Z,27.80
2017-11-06T17:19:16.510Z,27.05
2017-11-06T17:21:44.298Z,28.70
2017-11-06T17:24:11.977Z,34.93
2017-11-06T17:26:39.846Z,33.83
2017-11-06T17:29:07.629Z,32.80
2017-11-06T17:31:35.239Z,37.03
2017-11-06T17:34:02.891Z,32.50
2017-11-06T17:36:30.720Z,34.20
2017-11-06T17:38:58.624Z,33.47
2017-11-06T17:41:26.298Z,30.20
2017-11-06T17:43:54.031Z,35.30
2017-11-06T17:46:21.685Z,35.37
2017-11-06T17:48:49.388Z,37.15
2017-11-06T17:51:17.053Z,43.08
2017-11-06T17:53:44.721Z,41.67
2017-11-06T17:56:12.494Z,38.53
2017-11-06T17:58:40.205Z,38.13
2017-11-06T18:01:08.131Z,34.85
2017-11-06T18:03:35.879Z,44.47
2017-11-06T18:06:04.577Z,39.35
2017-11-06T18:08:32.293Z,35.60
2017-11-06T18:10:59.979Z,37.07
2017-11-06T18:13:27.618Z,34.00
2017-11-06T18:15:55.357Z,34.45
2017-11-06T18:18:23.020Z,35.77
2017-11-06T18:20:50.610Z,36.15
2017-11-06T18:23:18.302Z,37.80
2017-11-06T18:25:46.448Z,33.20
2017-11-06T18:28:14.086Z,35.83
2017-11-06T18:30:41.734Z,28.77
2017-11-06T18:33:09.272Z,29.67
2017-11-06T18:35:36.868Z,30.00
2017-11-06T18:38:04.968Z,30.02
2017-11-06T18:40:32.565Z,32.53
2017-11-06T18:43:00.599Z,32.22
2017-11-06T18:45:29.208Z,33.50
2017-11-06T18:47:56.905Z,33.65
2017-11-06T18:50:24.760Z,36.60
2017-11-06T18:52:52.452Z,32.50
2017-11-06T18:55:20.253Z,37.13
2017-11-06T18:57:48.084Z,40.35
2017-11-06T19:00:15.764Z,36.08
2017-11-06T19:02:43.384Z,39.90
2017-11-06T19:05:11.067Z,43.00
2017-11-06T19:07:38.739Z,46.65
2017-11-06T19:10:06.341Z,46.63
2017-11-06T19:12:33.966Z,40.08
2017-11-06T19:15:01.760Z,40.95
2017-11-06T19:17:29.347Z,42.33
2017-11-06T19:19:57.193Z,37.33
2017-11-06T19:22:24.881Z,36.78
2017-11-06T19:24:52.632Z,30.20
2017-11-06T19:27:20.201Z,34.88
2017-11-06T19:29:49.459Z,27.10
2017-11-06T19:32:17.104Z,29.98
2017-11-06T19:34:44.923Z,25.15
2017-11-06T19:37:12.568Z,27.87
2017-11-06T19:39:40.205Z,29.33
2017-11-06T19:42:07.811Z,25.40
2017-11-06T19:44:35.391Z,30.60
2017-11-06T19:47:03.049Z,26.95
2017-11-06T19:49:30.819Z,28.65
2017-11-06T19:51:58.591Z,27.05
2017-11-06T19:54:26.241Z,28.30
2017-11-06T19:56:54.016Z,27.60
2017-11-06T19:59:21.625Z,28.20
2017-11-06T20:01:49.237Z,27.08
2017-11-06T20:04:17.155Z,28.60
2017-11-06T20:06:45.207Z,29.55
2017-11-06T20:09:12.811Z,25.75
2017-11-06T20:11:40.422Z,27.85
2017-11-06T20:14:08.040Z,26.52
2017-11-06T20:16:35.740Z,29.65
2017-11-06T20:19:04.272Z,29.00
2017-11-06T20:21:32.064Z,27.35
2017-11-06T20:23:59.757Z,27.87
2017-11-06T20:26:27.612Z,24.37
2017-11-06T20:28:55.346Z,22.73
2017-11-06T20:31:23.052Z,23.30
2017-11-06T20:33:49.917Z,23.45
2017-11-06T20:36:17.598Z,22.48
2017-11-06T20:38:45.293Z,23.40
2017-11-06T20:41:12.882Z,25.67
2017-11-06T20:43:40.509Z,30.30
2017-11-06T20:46:08.183Z,40.58
2017-11-06T20:48:36.083Z,36.80
2017-11-06T20:51:03.765Z,36.28
2017-11-06T20:53:31.354Z,39.63
2017-11-06T20:55:58.957Z,39.17
2017-11-06T20:58:26.756Z,40.78
2017-11-06T21:00:54.429Z,35.25
2017-11-06T21:03:22.373Z,36.25
2017-11-06T21:05:49.991Z,34.40
2017-11-06T21:08:17.631Z,32.45
2017-11-06T21:10:45.217Z,31.92
2017-11-06T21:13:13.029Z,31.23
2017-11-06T21:15:40.736Z,29.95
2017-11-06T21:18:08.494Z,31.30
2017-11-06T21:20:36.118Z,33.50
2017-11-06T21:23:03.757Z,30.50
2017-11-06T21:25:31.658Z,28.92
2017-11-06T21:27:59.253Z,33.47
2017-11-06T21:30:32.681Z,35.15
2017-11-06T21:33:00.248Z,32.85
2017-11-06T21:35:27.871Z,34.22
2017-11-06T21:37:55.488Z,32.22
2017-11-06T21:40:24.180Z,34.67
2017-11-06T21:42:51.742Z,30.33
2017-11-06T21:45:19.368Z,36.08
2017-11-06T21:47:47.213Z,34.45
2017-11-06T21:50:14.769Z,34.45
2017-11-06T21:52:42.426Z,36.88
2017-11-06T21:55:10.005Z,38.45
2017-11-06T21:57:37.650Z,35.67
2017-11-06T22:00:08.577Z,41.70
2017-11-06T22:02:36.350Z,41.47
2017-11-06T22:05:04.769Z,44.05
2017-11-06T22:07:32.431Z,38.63
2017-11-06T22:10:00.062Z,36.95
2017-11-06T22:12:27.907Z,35.63
2017-11-06T22:14:55.559Z,38.97
2017-11-06T22:17:23.184Z,37.60
2017-11-06T22:19:50.802Z,40.38
2017-11-06T22:22:18.513Z,43.13
2017-11-06T22:24:46.145Z,39.72
2017-11-06T22:27:13.745Z,37.13
2017-11-06T22:29:41.349Z,33.50
2017-11-06T22:32:08.957Z,26.23
2017-11-06T22:34:36.850Z,26.73
2017-11-06T22:37:04.776Z,26.67
2017-11-06T22:39:32.379Z,28.52
2017-11-06T22:42:00.110Z,23.35
2017-11-06T22:44:27.739Z,27.13
2017-11-06T22:46:55.387Z,25.02
2017-11-06T22:49:23.232Z,22.75
2017-11-06T22:51:51.140Z,22.73
2017-11-06T22:54:18.808Z,32.15
2017-11-06T22:56:46.479Z,28.65
2017-11-06T22:59:14.082Z,29.12
2017-11-06T23:01:41.688Z,28.15
2017-11-06T23:04:09.240Z,30.08
